Clinton, WA

07:00 PST le 24 novembre 2014 (GMT -0800)
Campbell's Glen | Change Station
CLOSE
Current Station
Stations météorologiques personnelles
Location: Clinton, WA
Altitude: 418 ft
Stations météo à proximité

Alt. 418 ft 47.99 °N, 122.39 °W | Updated 17 seconds ago

Nuageux
Nuageux
44.4 ° F
Paraît 42 ° F
N
4.6
Vent Variable Vent de Sud
Gusts 6.9 mph

Aujourd'hui
Haut(e) -- | Bas -- ° F
--% Risque de précip.
Hier
Haut(e) -- | Bas -- ° F
Precip. -- pouce
7:29 AM 4:23 PM
Lune montante, 5% visible
Pression 30.33 pouce
Visibilité 10.0 Miles terrestres
Nuages Peu 1800 ft
Nuageux 12000 ft
Refroidissement éolien 42 ° F
Point de rosée 40 ° F
Humidité 85%
Précipitations 0.00 pouce
Profondeur de la couche neigeuse Non disponible.
UV 0 sur 12
Pollen .10 sur 12
Qualité de l'air Non disponible.
Flu Activity Non disponible.
METAR KPAE 241453Z 15007KT 10SM FEW018 BKN120 06/03 A3032 RMK AO2 SLP270 T00610033 56011 $

More Conditions Fewer Conditions

Pression 30.33 pouce
Visibilité 10.0 Miles terrestres
Nuages Peu 1800 ft
Nuageux 12000 ft
Refroidissement éolien 42 ° F
Point de rosée 40 ° F
Humidité 85%
Précipitations 0.00 pouce
Profondeur de la couche neigeuse Non disponible.
UV 0 sur 12
Pollen .10 sur 12
Qualité de l'air Non disponible.
Flu Activity Non disponible.
METAR KPAE 241453Z 15007KT 10SM FEW018 BKN120 06/03 A3032 RMK AO2 SLP270 T00610033 56011 $

More Conditions Fewer Conditions

10-Day Weather Forecast

Almanac

Astronomie

Nov. 24, 2014 Lever Coucher
Temps réel
Crépuscule civil
Crépuscule nautique
Crépuscule astronomique
Lune
Durée de lumière visible
Longueur du jour
Tomorrow will be .
, % of the Moon is Illuminated

Extrêmes aujourd'hui

State Highs State Lows

Community

WunderPhotos

Upload Photos

1,773,360 Photos téléchargées !

WunderBlogs® & News

Nearby

Qualité de l'air

  Qualité de l'air Indice de la qualité de l'air Polluant
Not available.

Épaisseur de neige

Station Depth Altitude

Activité sismique

Ville Distance Mag. Time & Date
Minimum magnitude displayed is 2.5.

Températures des eaux côtières

Lieu Température

Stations météo à proximité